createdAt,value
2022-11-25T00:00:25.077Z,17.75
2022-11-25T00:01:25.654Z,17.77
2022-11-25T00:02:26.455Z,17.75
2022-11-25T00:03:27.137Z,17.75
2022-11-25T00:04:27.878Z,17.74
2022-11-25T00:05:28.449Z,17.72
2022-11-25T00:06:29.022Z,17.72
2022-11-25T00:07:29.662Z,17.72
2022-11-25T00:08:30.282Z,17.71
2022-11-25T00:09:31.165Z,17.70
2022-11-25T00:10:31.753Z,17.71
2022-11-25T00:11:32.334Z,17.71
2022-11-25T00:12:32.924Z,17.71
2022-11-25T00:13:33.517Z,17.74
2022-11-25T00:14:34.396Z,17.74
2022-11-25T00:15:34.711Z,17.74
2022-11-25T00:16:35.371Z,17.74
2022-11-25T00:17:35.976Z,17.72
2022-11-25T00:18:36.556Z,17.72
2022-11-25T00:19:37.189Z,17.72
2022-11-25T00:20:37.762Z,17.68
2022-11-25T00:21:38.341Z,17.68
2022-11-25T00:22:38.912Z,17.66
2022-11-25T00:23:39.498Z,17.66
2022-11-25T00:24:40.166Z,17.64
2022-11-25T00:25:40.752Z,17.64
2022-11-25T00:26:41.320Z,17.63
2022-11-25T00:27:41.892Z,17.62
2022-11-25T00:28:42.465Z,17.64
2022-11-25T00:29:43.110Z,17.62
2022-11-25T00:30:43.708Z,17.56
2022-11-25T00:31:44.340Z,17.56
2022-11-25T00:32:44.940Z,17.56
2022-11-25T00:33:45.518Z,17.58
2022-11-25T00:34:46.186Z,17.56
2022-11-25T00:35:46.753Z,17.54
2022-11-25T00:36:47.322Z,17.54
2022-11-25T00:37:47.896Z,17.51
2022-11-25T00:38:48.458Z,17.48
2022-11-25T00:39:49.064Z,17.44
2022-11-25T00:40:49.641Z,17.44
2022-11-25T00:41:50.226Z,17.41
2022-11-25T00:42:50.805Z,17.43
2022-11-25T00:43:51.371Z,17.40
2022-11-25T00:44:52.040Z,17.37
2022-11-25T00:45:52.658Z,17.37
2022-11-25T00:46:53.256Z,17.31
2022-11-25T00:47:53.838Z,17.30
2022-11-25T00:48:54.402Z,17.22
2022-11-25T00:49:55.143Z,17.18
2022-11-25T00:50:55.711Z,17.18
2022-11-25T00:51:56.286Z,17.18
2022-11-25T00:52:56.865Z,17.12
2022-11-25T00:53:59.095Z,17.14
2022-11-25T00:54:58.474Z,17.15
2022-11-25T00:55:59.045Z,17.14
2022-11-25T00:56:59.611Z,17.12
2022-11-25T00:58:00.191Z,17.12
2022-11-25T00:59:00.766Z,17.12
2022-11-25T01:00:01.406Z,17.11
2022-11-25T01:01:02.070Z,17.08
2022-11-25T01:02:02.814Z,17.08
2022-11-25T01:03:03.430Z,17.08
2022-11-25T01:04:04.015Z,17.11
2022-11-25T01:05:04.761Z,17.07
2022-11-25T01:06:05.341Z,17.07
2022-11-25T01:07:05.919Z,17.04
2022-11-25T01:08:06.489Z,17.03
2022-11-25T01:09:07.062Z,17.00
2022-11-25T01:10:07.828Z,17.01
2022-11-25T01:11:08.398Z,17.00
2022-11-25T01:12:08.975Z,16.98
2022-11-25T01:13:09.554Z,16.98
2022-11-25T01:14:10.165Z,16.98
2022-11-25T01:15:10.774Z,17.00
2022-11-25T01:16:11.456Z,17.01
2022-11-25T01:17:12.048Z,17.00
2022-11-25T01:18:12.621Z,16.98
2022-11-25T01:19:13.189Z,16.93
2022-11-25T01:20:13.807Z,16.91
2022-11-25T01:21:14.386Z,16.91
2022-11-25T01:22:14.970Z,16.86
2022-11-25T01:23:15.548Z,16.81
2022-11-25T01:24:16.130Z,16.73
2022-11-25T01:25:16.799Z,16.70
2022-11-25T01:26:17.377Z,16.61
2022-11-25T01:27:17.955Z,16.57
2022-11-25T01:28:18.541Z,16.52
2022-11-25T01:29:19.116Z,16.52
2022-11-25T01:30:19.856Z,16.50
2022-11-25T01:31:20.507Z,16.49
2022-11-25T01:32:21.110Z,16.46
2022-11-25T01:33:21.694Z,16.45
2022-11-25T01:34:22.266Z,16.45
2022-11-25T01:35:22.883Z,16.42
2022-11-25T01:36:23.446Z,16.39
2022-11-25T01:37:24.026Z,16.34
2022-11-25T01:38:24.611Z,16.31
2022-11-25T01:39:31.679Z,16.28
2022-11-25T01:40:26.186Z,16.27
2022-11-25T01:41:26.753Z,16.24
2022-11-25T01:42:27.333Z,16.24
2022-11-25T01:43:27.896Z,16.20
2022-11-25T01:44:28.469Z,16.17
2022-11-25T01:45:29.134Z,16.17
2022-11-25T01:46:29.711Z,16.14
2022-11-25T01:47:30.290Z,16.14
2022-11-25T01:48:30.869Z,16.14
2022-11-25T01:49:31.437Z,16.12
2022-11-25T01:50:32.060Z,16.12
2022-11-25T01:51:32.632Z,16.14
2022-11-25T01:52:33.215Z,16.12
2022-11-25T01:53:33.805Z,16.09
2022-11-25T01:54:34.742Z,16.11
2022-11-25T01:55:35.413Z,16.08
2022-11-25T01:56:35.988Z,16.08
2022-11-25T01:57:36.567Z,16.09
2022-11-25T01:58:37.142Z,16.08
2022-11-25T01:59:37.719Z,16.08
2022-11-25T02:00:38.348Z,16.07
2022-11-25T02:01:38.971Z,16.04
2022-11-25T02:02:39.638Z,15.97
2022-11-25T02:03:40.288Z,15.94
2022-11-25T02:04:40.863Z,15.92
2022-11-25T02:05:41.593Z,15.87
2022-11-25T02:06:42.188Z,15.87
2022-11-25T02:07:42.866Z,15.86
2022-11-25T02:08:43.535Z,15.86
2022-11-25T02:09:44.116Z,15.87
2022-11-25T02:10:44.769Z,15.90
2022-11-25T02:11:45.352Z,15.93
2022-11-25T02:12:45.930Z,15.97
2022-11-25T02:13:46.534Z,15.96
2022-11-25T02:14:47.111Z,16.00
2022-11-25T02:15:47.869Z,15.96
2022-11-25T02:16:48.556Z,15.94
2022-11-25T02:17:49.180Z,15.92
2022-11-25T02:18:49.756Z,15.90
2022-11-25T02:19:50.326Z,15.89
2022-11-25T02:20:50.963Z,15.89
2022-11-25T02:21:51.540Z,15.87
2022-11-25T02:22:52.106Z,15.86
2022-11-25T02:23:52.683Z,15.84
2022-11-25T02:24:53.258Z,15.83
2022-11-25T02:25:54.022Z,15.84
2022-11-25T02:26:54.606Z,15.82
2022-11-25T02:27:55.179Z,15.82
2022-11-25T02:28:55.757Z,15.78
2022-11-25T02:29:56.335Z,15.78
2022-11-25T02:30:57.045Z,15.78
2022-11-25T02:31:57.716Z,15.75
2022-11-25T02:32:58.350Z,15.74
2022-11-25T02:33:58.919Z,15.69
2022-11-25T02:34:59.498Z,15.69
2022-11-25T02:36:00.162Z,15.71
2022-11-25T02:37:00.732Z,15.69
2022-11-25T02:38:01.307Z,15.67
2022-11-25T02:39:01.882Z,15.69
2022-11-25T02:40:02.462Z,15.71
2022-11-25T02:41:03.071Z,15.71
2022-11-25T02:42:03.634Z,15.75
2022-11-25T02:43:04.207Z,15.72
2022-11-25T02:44:04.788Z,15.69
2022-11-25T02:45:05.371Z,15.65
2022-11-25T02:46:06.071Z,15.62
2022-11-25T02:47:06.698Z,15.59
2022-11-25T02:48:07.298Z,15.56
2022-11-25T02:49:09.707Z,15.54
2022-11-25T02:50:08.680Z,15.54
2022-11-25T02:51:09.394Z,15.53
2022-11-25T02:52:09.979Z,15.56
2022-11-25T02:53:10.572Z,15.56
2022-11-25T02:54:11.154Z,15.57
2022-11-25T02:55:11.726Z,15.57
2022-11-25T02:56:12.400Z,15.56
2022-11-25T02:57:12.988Z,15.54
2022-11-25T02:58:13.567Z,15.50
2022-11-25T02:59:14.165Z,15.49
2022-11-25T03:00:14.733Z,15.47
2022-11-25T03:01:15.509Z,15.49
2022-11-25T03:02:16.299Z,15.46
2022-11-25T03:03:16.910Z,15.44
2022-11-25T03:04:17.490Z,15.41
2022-11-25T03:05:18.059Z,15.39
2022-11-25T03:06:18.724Z,15.38
2022-11-25T03:07:19.346Z,15.34
2022-11-25T03:08:19.944Z,15.28
2022-11-25T03:09:20.525Z,15.25
2022-11-25T03:10:21.105Z,15.23
2022-11-25T03:11:21.731Z,15.20
2022-11-25T03:12:22.302Z,15.21
2022-11-25T03:13:22.875Z,15.16
2022-11-25T03:14:23.440Z,15.14
2022-11-25T03:15:23.999Z,15.13
2022-11-25T03:16:24.788Z,15.10
2022-11-25T03:17:25.389Z,15.10
2022-11-25T03:18:25.967Z,15.13
2022-11-25T03:19:26.549Z,15.13
2022-11-25T03:20:27.143Z,15.14
2022-11-25T03:21:27.821Z,15.16
2022-11-25T03:22:28.416Z,15.16
2022-11-25T03:23:29.012Z,15.17
2022-11-25T03:24:29.586Z,15.14
2022-11-25T03:25:30.157Z,15.14
2022-11-25T03:26:30.858Z,15.13
2022-11-25T03:27:31.431Z,15.13
2022-11-25T03:28:31.999Z,15.14
2022-11-25T03:29:32.570Z,15.14
2022-11-25T03:30:33.149Z,15.14
2022-11-25T03:31:33.868Z,15.14
2022-11-25T03:32:34.495Z,15.17
2022-11-25T03:33:35.069Z,15.19
2022-11-25T03:34:35.920Z,15.20
2022-11-25T03:35:36.177Z,15.21
2022-11-25T03:36:36.879Z,15.25
2022-11-25T03:37:37.464Z,15.28
2022-11-25T03:38:38.027Z,15.31
2022-11-25T03:39:38.604Z,15.32
2022-11-25T03:40:39.183Z,15.32
2022-11-25T03:41:39.817Z,15.35
2022-11-25T03:42:40.396Z,15.35
2022-11-25T03:43:40.979Z,15.35
2022-11-25T03:44:41.560Z,15.34
2022-11-25T03:45:42.170Z,15.34
2022-11-25T03:46:42.879Z,15.32
2022-11-25T03:47:43.457Z,15.31
2022-11-25T03:48:44.037Z,15.32
2022-11-25T03:49:44.607Z,15.34
2022-11-25T03:50:45.178Z,15.32
2022-11-25T03:51:45.855Z,15.32
2022-11-25T03:52:46.434Z,15.31
2022-11-25T03:53:47.003Z,15.29
2022-11-25T03:54:47.577Z,15.25
2022-11-25T03:55:48.155Z,15.25
2022-11-25T03:56:48.840Z,15.23
2022-11-25T03:57:49.419Z,15.20
2022-11-25T03:58:49.986Z,15.17
2022-11-25T03:59:50.548Z,15.14
2022-11-25T04:00:51.187Z,15.13
2022-11-25T04:01:51.943Z,15.13
2022-11-25T04:02:52.680Z,15.11
2022-11-25T04:03:53.307Z,15.11
2022-11-25T04:04:53.891Z,15.10
2022-11-25T04:05:54.460Z,15.10
2022-11-25T04:06:55.217Z,15.09
2022-11-25T04:07:58.057Z,15.07
2022-11-25T04:08:56.414Z,15.10
2022-11-25T04:09:56.980Z,15.09
2022-11-25T04:10:57.554Z,15.07
2022-11-25T04:11:58.154Z,15.09
2022-11-25T04:12:58.738Z,15.06
2022-11-25T04:13:59.313Z,15.02
2022-11-25T04:14:59.903Z,15.01
2022-11-25T04:16:00.482Z,15.02
2022-11-25T04:17:01.334Z,15.03
2022-11-25T04:18:01.942Z,15.03
2022-11-25T04:19:02.518Z,15.07
2022-11-25T04:20:03.092Z,15.09
2022-11-25T04:21:03.653Z,15.10
2022-11-25T04:22:05.026Z,15.10
2022-11-25T04:23:05.098Z,15.11
2022-11-25T04:24:05.679Z,15.13
2022-11-25T04:25:06.246Z,15.14
2022-11-25T04:26:06.819Z,15.16
2022-11-25T04:27:07.494Z,15.16
2022-11-25T04:28:08.137Z,15.17
2022-11-25T04:29:08.717Z,15.17
2022-11-25T04:30:09.295Z,15.19
2022-11-25T04:31:09.951Z,15.19
2022-11-25T04:32:10.609Z,15.17
2022-11-25T04:33:11.267Z,15.14
2022-11-25T04:34:11.855Z,15.11
2022-11-25T04:35:12.437Z,15.10
2022-11-25T04:36:13.017Z,15.09
2022-11-25T04:37:13.613Z,15.10
2022-11-25T04:38:14.286Z,15.10
2022-11-25T04:39:14.865Z,15.10
2022-11-25T04:40:15.461Z,15.07
2022-11-25T04:41:16.033Z,15.06
2022-11-25T04:42:16.620Z,15.09
2022-11-25T04:43:17.235Z,15.07
2022-11-25T04:44:17.807Z,15.07
2022-11-25T04:45:23.400Z,15.10
2022-11-25T04:46:19.356Z,15.07
2022-11-25T04:47:19.986Z,15.02
2022-11-25T04:48:20.600Z,15.01
2022-11-25T04:49:21.176Z,14.99
2022-11-25T04:50:21.750Z,14.99
2022-11-25T04:51:22.329Z,15.01
2022-11-25T04:52:22.927Z,14.99
2022-11-25T04:53:23.543Z,14.98
2022-11-25T04:54:24.116Z,14.98
2022-11-25T04:55:24.683Z,14.94
2022-11-25T04:56:25.259Z,14.92
2022-11-25T04:57:25.830Z,14.91
2022-11-25T04:58:26.449Z,14.89
2022-11-25T04:59:26.966Z,14.89
2022-11-25T05:00:27.477Z,14.88
2022-11-25T05:01:28.028Z,14.88
2022-11-25T05:02:28.693Z,14.84
2022-11-25T05:03:29.276Z,14.83
2022-11-25T05:04:29.801Z,14.83
2022-11-25T05:05:30.314Z,14.83
2022-11-25T05:06:30.820Z,14.80
2022-11-25T05:07:31.419Z,14.78
2022-11-25T05:08:32.045Z,14.77
2022-11-25T05:09:32.569Z,14.73
2022-11-25T05:10:33.109Z,14.77
2022-11-25T05:11:33.623Z,14.75
2022-11-25T05:12:34.208Z,14.75
2022-11-25T05:13:34.755Z,14.75
2022-11-25T05:14:35.666Z,14.72
2022-11-25T05:15:35.964Z,14.73
2022-11-25T05:16:36.601Z,14.73
2022-11-25T05:17:37.143Z,14.73
2022-11-25T05:18:37.693Z,14.69
2022-11-25T05:19:38.230Z,14.64
2022-11-25T05:20:38.762Z,14.60
2022-11-25T05:21:39.299Z,14.60
2022-11-25T05:22:39.835Z,14.61
2022-11-25T05:23:46.255Z,14.65
2022-11-25T05:24:40.884Z,14.69
2022-11-25T05:25:41.403Z,14.73
2022-11-25T05:26:41.928Z,14.75
2022-11-25T05:27:42.463Z,14.77
2022-11-25T05:28:43.084Z,14.77
2022-11-25T05:29:43.611Z,14.77
2022-11-25T05:30:44.155Z,14.75
2022-11-25T05:31:44.690Z,14.73
2022-11-25T05:32:45.222Z,14.73
2022-11-25T05:33:45.851Z,14.70
2022-11-25T05:34:46.369Z,14.69
2022-11-25T05:35:46.893Z,14.68
2022-11-25T05:36:47.417Z,14.70
2022-11-25T05:37:47.967Z,14.70
2022-11-25T05:38:48.530Z,14.73
2022-11-25T05:39:49.054Z,14.78
2022-11-25T05:40:49.572Z,14.80
2022-11-25T05:41:50.087Z,14.80
2022-11-25T05:42:50.614Z,14.81
2022-11-25T05:43:54.662Z,14.84
2022-11-25T05:44:52.009Z,14.83
2022-11-25T05:45:52.630Z,14.83
2022-11-25T05:46:53.202Z,14.84
2022-11-25T05:47:55.332Z,14.86
2022-11-25T05:48:54.453Z,14.86
2022-11-25T05:49:54.959Z,14.84
2022-11-25T05:50:55.494Z,14.86
2022-11-25T05:51:56.577Z,14.86
2022-11-25T05:52:56.957Z,14.89
2022-11-25T05:53:57.608Z,14.89
2022-11-25T05:54:58.503Z,14.91
2022-11-25T05:55:58.870Z,14.92
2022-11-25T05:57:38.315Z,14.94
2022-11-25T05:58:06.013Z,14.96
2022-11-25T05:59:01.716Z,14.98
2022-11-25T06:00:01.836Z,15.01
2022-11-25T06:01:03.310Z,15.06
2022-11-25T06:02:29.312Z,15.07
2022-11-25T06:03:04.047Z,15.10
2022-11-25T06:04:10.414Z,15.11
2022-11-25T06:05:05.552Z,15.16
2022-11-25T06:06:06.256Z,15.19
2022-11-25T06:07:06.294Z,15.20
2022-11-25T06:08:06.861Z,15.23
2022-11-25T06:09:07.384Z,15.27
2022-11-25T06:10:07.972Z,15.29
2022-11-25T06:11:08.750Z,15.31
2022-11-25T06:12:09.286Z,15.34
2022-11-25T06:13:18.051Z,15.38
2022-11-25T06:14:10.420Z,15.43
2022-11-25T06:15:10.952Z,15.44
2022-11-25T06:16:12.011Z,15.49
2022-11-25T06:17:12.277Z,15.54
2022-11-25T06:18:12.883Z,15.57
2022-11-25T06:19:13.456Z,15.64
2022-11-25T06:20:13.978Z,15.72
2022-11-25T06:21:14.927Z,15.76
2022-11-25T06:22:15.355Z,15.84
2022-11-25T06:23:15.899Z,15.89
2022-11-25T06:24:16.465Z,15.92
2022-11-25T06:25:17.014Z,15.96
2022-11-25T06:26:17.525Z,16.00
2022-11-25T06:27:18.050Z,16.04
2022-11-25T06:28:18.591Z,16.08
2022-11-25T06:29:19.253Z,16.14
2022-11-25T06:30:19.794Z,16.15
2022-11-25T06:31:20.441Z,16.21
2022-11-25T06:32:21.068Z,16.23
2022-11-25T06:33:21.587Z,16.27
2022-11-25T06:34:22.197Z,16.28
2022-11-25T06:35:22.712Z,16.31
2022-11-25T06:36:23.277Z,16.34
2022-11-25T06:37:23.855Z,16.34
2022-11-25T06:38:24.449Z,16.38
2022-11-25T06:39:25.007Z,16.41
2022-11-25T06:40:25.519Z,16.42
2022-11-25T06:41:26.039Z,16.42
2022-11-25T06:42:26.551Z,16.45
2022-11-25T06:43:27.704Z,16.45
2022-11-25T06:44:27.814Z,16.46
2022-11-25T06:45:29.375Z,16.49
2022-11-25T06:46:29.076Z,16.50
2022-11-25T06:47:29.600Z,16.52
2022-11-25T06:48:30.489Z,16.57
2022-11-25T06:49:32.795Z,16.60
2022-11-25T06:50:32.233Z,16.61
2022-11-25T06:51:32.484Z,16.64
2022-11-25T06:52:32.996Z,16.67
2022-11-25T06:53:33.542Z,16.67
2022-11-25T06:54:38.261Z,16.70
2022-11-25T06:55:34.894Z,16.75
2022-11-25T06:56:35.772Z,16.79
2022-11-25T06:58:34.865Z,16.82
2022-11-25T06:58:37.157Z,16.89
2022-11-25T06:59:51.700Z,16.96
2022-11-25T07:00:57.729Z,17.01
2022-11-25T07:01:44.284Z,17.08
2022-11-25T07:02:43.019Z,17.14
2022-11-25T07:03:45.277Z,17.19
2022-11-25T07:04:41.125Z,17.26
2022-11-25T07:05:47.643Z,17.36
2022-11-25T07:06:43.715Z,17.40
2022-11-25T07:07:50.737Z,17.48
2022-11-25T07:08:46.247Z,17.54
2022-11-25T07:09:44.412Z,17.56
2022-11-25T07:10:45.154Z,17.55
2022-11-25T07:11:48.720Z,17.55
2022-11-25T07:13:13.131Z,17.58
2022-11-25T07:14:05.775Z,17.59
2022-11-25T07:14:49.295Z,17.59
2022-11-25T07:25:30.829Z,17.72
2022-11-25T07:26:01.962Z,17.75
2022-11-25T07:27:02.543Z,17.79
2022-11-25T07:28:03.108Z,17.86
2022-11-25T07:29:03.627Z,17.87
2022-11-25T07:30:54.496Z,17.92
2022-11-25T07:32:10.503Z,18.03
2022-11-25T07:33:06.853Z,18.03
2022-11-25T07:34:07.459Z,18.07
2022-11-25T07:35:08.030Z,18.05
2022-11-25T07:36:08.836Z,18.05
2022-11-25T07:37:09.358Z,18.14
2022-11-25T07:38:09.905Z,18.18
2022-11-25T07:39:10.919Z,18.23
2022-11-25T07:40:11.239Z,18.29
2022-11-25T07:41:11.818Z,18.33
2022-11-25T07:42:12.374Z,18.36
2022-11-25T07:43:13.004Z,18.39
2022-11-25T07:44:13.521Z,18.44
2022-11-25T07:45:14.043Z,18.48
2022-11-25T07:46:16.023Z,18.50
2022-11-25T07:47:15.466Z,18.54
2022-11-25T07:48:16.005Z,18.60
2022-11-25T07:49:16.524Z,18.62
2022-11-25T07:50:17.038Z,18.65
2022-11-25T07:51:17.600Z,18.69
2022-11-25T07:52:18.158Z,18.72
2022-11-25T07:53:28.314Z,18.75
2022-11-25T07:54:21.890Z,18.81
2022-11-25T07:55:22.533Z,18.84
2022-11-25T07:56:22.701Z,18.88
2022-11-25T07:57:29.039Z,18.91
2022-11-25T07:58:30.148Z,18.92
2022-11-25T07:59:30.961Z,18.99
2022-11-25T08:00:26.734Z,18.99
2022-11-25T08:01:29.002Z,19.00
2022-11-25T08:02:38.984Z,19.04
2022-11-25T08:03:26.664Z,19.06
2022-11-25T08:04:27.180Z,19.08
2022-11-25T08:05:27.726Z,19.13
2022-11-25T08:06:29.634Z,19.16
2022-11-25T08:07:34.897Z,19.16
2022-11-25T08:08:30.090Z,19.21
2022-11-25T08:09:32.794Z,19.21
2022-11-25T08:10:31.323Z,19.22
2022-11-25T08:11:32.308Z,19.26
2022-11-25T08:12:32.374Z,19.29
2022-11-25T08:13:32.963Z,19.29
2022-11-25T08:14:33.901Z,19.32
2022-11-25T08:15:34.556Z,19.36
2022-11-25T08:16:35.187Z,19.37
2022-11-25T08:17:35.709Z,19.40
2022-11-25T08:18:36.238Z,19.41
2022-11-25T08:19:37.248Z,19.46
2022-11-25T08:20:37.348Z,19.47
2022-11-25T08:21:37.915Z,19.48
2022-11-25T08:22:38.449Z,19.51
2022-11-25T08:23:41.854Z,19.54
2022-11-25T08:24:39.947Z,19.55
2022-11-25T08:25:40.485Z,19.58
2022-11-25T08:26:41.078Z,19.56
2022-11-25T08:27:41.607Z,19.61
2022-11-25T08:28:42.131Z,19.62
2022-11-25T08:29:42.670Z,19.63
2022-11-25T08:30:43.211Z,19.65
2022-11-25T08:31:43.923Z,19.66
2022-11-25T08:32:55.726Z,19.69
2022-11-25T08:33:45.387Z,19.73
2022-11-25T08:34:45.939Z,19.76
2022-11-25T08:35:46.689Z,19.76
2022-11-25T08:36:48.799Z,19.77
2022-11-25T08:37:48.105Z,19.77
2022-11-25T08:38:49.364Z,19.77
2022-11-25T08:39:52.814Z,19.80
2022-11-25T08:40:50.639Z,19.83
2022-11-25T08:41:51.483Z,19.84
2022-11-25T08:42:52.093Z,19.87
2022-11-25T08:43:52.706Z,19.88
2022-11-25T08:44:54.053Z,19.91
2022-11-25T08:45:54.175Z,19.92
2022-11-25T08:46:56.082Z,19.95
2022-11-25T08:47:56.028Z,19.96
2022-11-25T08:49:01.001Z,19.98
2022-11-25T08:50:02.298Z,20.01
2022-11-25T08:51:35.020Z,20.01
2022-11-25T08:52:29.359Z,20.03
2022-11-25T08:53:07.100Z,20.05
2022-11-25T08:54:07.905Z,20.05
2022-11-25T08:55:01.674Z,20.10
2022-11-25T08:56:25.786Z,20.10
2022-11-25T08:57:11.650Z,20.14
2022-11-25T08:58:09.676Z,20.18
2022-11-25T08:59:10.096Z,20.20
2022-11-25T09:00:04.805Z,20.21
2022-11-25T09:01:05.352Z,20.23
2022-11-25T09:02:05.977Z,20.24
2022-11-25T09:03:06.822Z,20.23
2022-11-25T09:04:15.863Z,20.21
2022-11-25T09:05:10.031Z,20.28
2022-11-25T09:06:08.810Z,20.26
2022-11-25T09:07:09.628Z,20.28
2022-11-25T09:08:10.726Z,20.29
2022-11-25T09:09:11.214Z,20.31
2022-11-25T09:10:11.664Z,20.31
2022-11-25T09:11:12.367Z,20.33
2022-11-25T09:12:12.924Z,20.33
2022-11-25T09:13:13.550Z,20.35
2022-11-25T09:14:15.267Z,20.36
2022-11-25T09:15:17.976Z,20.39
2022-11-25T09:16:27.078Z,20.41
2022-11-25T09:19:05.785Z,20.39
2022-11-25T09:20:07.658Z,20.42
2022-11-25T09:21:08.202Z,20.42
2022-11-25T09:22:08.762Z,20.47
2022-11-25T09:23:09.309Z,20.48
2022-11-25T09:24:09.882Z,20.50
2022-11-25T09:25:10.439Z,20.51
2022-11-25T09:26:10.972Z,20.55
2022-11-25T09:27:11.499Z,20.54
2022-11-25T09:28:12.023Z,20.57
2022-11-25T09:29:12.995Z,20.57
2022-11-25T09:30:13.092Z,20.57
2022-11-25T09:31:13.712Z,20.55
2022-11-25T09:32:14.294Z,20.58
2022-11-25T09:33:15.014Z,20.59
2022-11-25T09:34:15.690Z,20.59
2022-11-25T09:35:16.328Z,20.61
2022-11-25T09:36:16.886Z,20.62
2022-11-25T09:37:17.395Z,20.62
2022-11-25T09:38:17.910Z,20.64
2022-11-25T09:39:19.618Z,20.66
2022-11-25T09:40:19.181Z,20.72
2022-11-25T09:41:19.701Z,20.70
2022-11-25T09:42:20.215Z,20.72
2022-11-25T09:43:24.849Z,20.73
2022-11-25T09:44:21.587Z,20.77
2022-11-25T09:45:53.845Z,20.77
2022-11-25T09:46:31.295Z,20.77
2022-11-25T09:47:23.757Z,20.79
2022-11-25T09:48:24.286Z,20.80
2022-11-25T09:49:28.548Z,20.84
2022-11-25T09:50:26.273Z,20.85
2022-11-25T09:51:26.673Z,20.88
2022-11-25T09:52:27.379Z,20.91
2022-11-25T09:53:28.036Z,20.91
2022-11-25T09:54:28.589Z,20.92
2022-11-25T09:55:29.120Z,20.94
2022-11-25T09:56:29.659Z,20.94
2022-11-25T09:57:30.193Z,20.95
2022-11-25T09:58:30.721Z,20.94
2022-11-25T09:59:31.391Z,20.95
2022-11-25T10:00:31.947Z,20.97
2022-11-25T10:01:32.583Z,20.99
2022-11-25T10:02:37.545Z,21.01
2022-11-25T10:03:49.375Z,20.97
2022-11-25T10:04:35.886Z,21.01
2022-11-25T10:05:35.949Z,20.99
2022-11-25T10:06:36.631Z,21.03
2022-11-25T10:07:37.426Z,21.04
2022-11-25T10:08:42.163Z,21.03
2022-11-25T10:09:39.435Z,21.04
2022-11-25T10:10:47.816Z,21.06
2022-11-25T10:11:41.607Z,21.04
2022-11-25T10:12:41.138Z,21.07
2022-11-25T10:13:41.674Z,21.04
2022-11-25T10:14:42.251Z,21.01
2022-11-25T10:15:42.840Z,20.98
2022-11-25T10:16:48.546Z,20.91
2022-11-25T10:17:44.325Z,20.91
2022-11-25T10:18:44.994Z,20.92
2022-11-25T10:19:45.566Z,20.92
2022-11-25T10:20:46.132Z,20.92
2022-11-25T10:21:46.693Z,20.97
2022-11-25T10:22:47.345Z,21.01
2022-11-25T10:23:49.412Z,21.03
2022-11-25T10:25:36.810Z,21.07
2022-11-25T10:26:29.629Z,21.10
2022-11-25T10:27:05.627Z,21.13
2022-11-25T10:27:55.414Z,21.14
2022-11-25T10:28:58.588Z,21.16
2022-11-25T10:29:53.152Z,21.21
2022-11-25T10:30:53.501Z,21.14
2022-11-25T10:31:54.303Z,21.17
2022-11-25T10:32:59.306Z,21.22
2022-11-25T10:33:55.725Z,21.22
2022-11-25T10:35:09.548Z,21.28
2022-11-25T10:35:57.069Z,21.28
2022-11-25T10:37:01.711Z,21.28
2022-11-25T10:37:58.288Z,21.19
2022-11-25T10:38:58.823Z,21.13
2022-11-25T10:39:59.556Z,21.09
2022-11-25T10:41:00.212Z,21.09
2022-11-25T10:42:01.586Z,21.06
2022-11-25T10:43:01.596Z,21.09
2022-11-25T10:44:02.130Z,21.12
2022-11-25T10:45:02.728Z,21.16
2022-11-25T10:46:03.319Z,21.17
2022-11-25T10:47:19.102Z,21.19
2022-11-25T10:48:05.281Z,21.22
2022-11-25T10:49:05.368Z,21.22
2022-11-25T10:50:05.949Z,21.25
2022-11-25T10:51:06.468Z,21.25
2022-11-25T10:52:06.980Z,21.27
2022-11-25T10:53:07.496Z,21.29
2022-11-25T10:54:08.019Z,21.31
2022-11-25T10:55:08.616Z,21.34
2022-11-25T10:56:09.145Z,21.35
2022-11-25T10:57:09.674Z,21.35
2022-11-25T10:58:10.224Z,21.37
2022-11-25T10:59:10.732Z,21.31
2022-11-25T11:00:19.453Z,21.29
2022-11-25T11:01:12.112Z,21.28
2022-11-25T11:02:12.688Z,21.28
2022-11-25T11:03:13.362Z,21.31
2022-11-25T11:04:13.890Z,21.32
2022-11-25T11:05:14.524Z,21.32
2022-11-25T11:06:15.050Z,21.37
2022-11-25T11:07:15.619Z,21.31
2022-11-25T11:08:16.167Z,21.31
2022-11-25T11:09:16.710Z,21.31
2022-11-25T11:10:17.422Z,21.38
2022-11-25T11:11:17.957Z,21.31
2022-11-25T11:12:18.496Z,21.27
2022-11-25T11:13:19.012Z,21.22
2022-11-25T11:14:19.579Z,21.21
2022-11-25T11:15:20.347Z,21.19
2022-11-25T11:16:21.715Z,21.19
2022-11-25T11:17:22.117Z,21.24
2022-11-25T11:18:22.644Z,21.22
2022-11-25T11:19:23.156Z,21.27
2022-11-25T11:20:23.705Z,21.27
2022-11-25T11:21:24.290Z,21.29
2022-11-25T11:22:24.836Z,21.27
2022-11-25T11:23:28.609Z,21.31
2022-11-25T11:24:26.966Z,21.32
2022-11-25T11:25:27.006Z,21.37
2022-11-25T11:26:29.973Z,21.42
2022-11-25T11:27:29.525Z,21.49
2022-11-25T11:28:29.041Z,21.50
2022-11-25T11:29:30.730Z,21.54
2022-11-25T11:30:37.794Z,21.58
2022-11-25T11:31:31.278Z,21.59
2022-11-25T11:32:51.117Z,21.62
2022-11-25T11:33:40.114Z,21.61
2022-11-25T11:34:33.966Z,21.62
2022-11-25T11:35:37.720Z,21.58
2022-11-25T11:36:35.221Z,21.59
2022-11-25T11:37:35.807Z,21.64
2022-11-25T11:38:36.875Z,21.64
2022-11-25T11:39:37.668Z,21.68
2022-11-25T11:40:42.890Z,21.68
2022-11-25T11:41:38.713Z,21.71
2022-11-25T11:42:39.368Z,21.74
2022-11-25T11:43:40.062Z,21.69
2022-11-25T11:44:40.611Z,21.68
2022-11-25T11:45:41.471Z,21.64
2022-11-25T11:46:42.621Z,21.62
2022-11-25T11:47:43.035Z,21.61
2022-11-25T11:48:43.757Z,21.58
2022-11-25T11:49:44.572Z,21.58
2022-11-25T11:50:45.179Z,21.53
2022-11-25T11:51:46.207Z,21.53
2022-11-25T11:52:46.511Z,21.56
2022-11-25T11:54:14.962Z,21.58
2022-11-25T11:54:47.928Z,21.58
2022-11-25T11:56:05.571Z,21.58
2022-11-25T11:56:53.692Z,21.50
2022-11-25T11:58:03.739Z,21.52
2022-11-25T11:58:50.881Z,21.53
2022-11-25T11:59:51.410Z,21.53
2022-11-25T12:00:51.992Z,21.52
2022-11-25T12:01:52.567Z,21.52
2022-11-25T12:02:53.224Z,21.50
2022-11-25T12:03:54.501Z,21.46
2022-11-25T12:04:54.672Z,21.44
2022-11-25T12:05:55.290Z,21.40
2022-11-25T12:06:55.820Z,21.42
2022-11-25T12:07:56.454Z,21.37
2022-11-25T12:08:57.056Z,21.37
2022-11-25T12:09:57.565Z,21.32
2022-11-25T12:10:58.110Z,21.28
2022-11-25T12:11:58.619Z,21.25
2022-11-25T12:12:59.148Z,21.24
2022-11-25T12:14:01.119Z,21.16
2022-11-25T12:15:00.421Z,21.14
2022-11-25T12:16:01.180Z,21.14
2022-11-25T12:17:01.725Z,21.13
2022-11-25T12:18:02.255Z,21.14
2022-11-25T12:19:02.781Z,21.13
2022-11-25T12:20:03.304Z,21.14
2022-11-25T12:21:03.851Z,21.13
2022-11-25T12:22:04.368Z,21.13
2022-11-25T12:23:04.885Z,21.13
2022-11-25T12:24:05.406Z,21.14
2022-11-25T12:25:05.925Z,21.13
2022-11-25T12:26:06.467Z,21.12
2022-11-25T12:27:06.987Z,21.10
2022-11-25T12:28:07.521Z,21.10
2022-11-25T12:29:08.042Z,21.12
2022-11-25T12:30:08.563Z,21.14
2022-11-25T12:31:09.339Z,21.10
2022-11-25T12:32:09.856Z,21.06
2022-11-25T12:33:10.376Z,21.06
2022-11-25T12:34:10.894Z,21.03
2022-11-25T12:35:11.436Z,20.99
2022-11-25T12:36:11.986Z,20.99
2022-11-25T12:37:15.237Z,20.98
2022-11-25T12:38:12.994Z,20.97
2022-11-25T12:39:13.581Z,20.97
2022-11-25T12:40:14.119Z,20.99
2022-11-25T12:41:14.745Z,21.06
2022-11-25T12:42:15.260Z,21.07
2022-11-25T12:43:15.792Z,21.07
2022-11-25T12:44:16.312Z,21.04
2022-11-25T12:45:16.835Z,21.03
2022-11-25T12:46:17.523Z,20.99
2022-11-25T12:47:18.058Z,21.01
2022-11-25T12:48:21.485Z,20.99
2022-11-25T12:49:19.231Z,20.98
2022-11-25T12:50:19.749Z,20.97
2022-11-25T12:51:20.323Z,20.95
2022-11-25T12:52:20.853Z,20.98
2022-11-25T12:53:21.367Z,20.92
2022-11-25T12:54:21.889Z,20.89
2022-11-25T12:55:22.412Z,20.88
2022-11-25T12:56:22.982Z,20.87
2022-11-25T12:57:23.513Z,20.85
2022-11-25T12:58:24.114Z,20.87
2022-11-25T12:59:24.696Z,20.84
2022-11-25T13:00:42.361Z,20.84
2022-11-25T13:01:26.222Z,20.85
2022-11-25T13:02:26.826Z,20.88
2022-11-25T13:03:27.395Z,20.91
2022-11-25T13:04:27.918Z,20.94
2022-11-25T13:05:43.683Z,20.97
2022-11-25T13:06:29.396Z,20.98
2022-11-25T13:07:29.985Z,21.04
2022-11-25T13:08:30.530Z,21.01
2022-11-25T13:09:31.052Z,21.06
2022-11-25T13:10:31.572Z,21.07
2022-11-25T13:11:32.448Z,21.09
2022-11-25T13:12:33.239Z,21.13